Time;durP1;ratioP1;P1;durP2;ratioP2;P2;SDS_P1;SDS_P2;PMS_P1;PMS_P2;Temp;Humidity;BMP_temperature;BMP_pressure;BME280_temperature;BME280_humidity;BME280_pressure;Samples;Min_cycle;Max_cycle;Signal;HPM_P1;HPM_P2
2022/06/07 00:04:12;;;;;;;3.40;1.55;;;;;;;20.39;58.09;99684.12;7766355;32;37607;-77
2022/06/07 00:08:31;;;;;;;2.37;1.58;;;;;;;20.40;57.96;99684.94;7766099;32;39228;-78
2022/06/07 00:12:47;;;;;;;1.85;1.40;;;;;;;20.35;58.31;99694.28;7766192;32;41581;-78
2022/06/07 00:17:05;;;;;;;1.30;1.20;;;;;;;20.42;57.62;99677.09;7765737;32;39526;-77
2022/06/07 00:21:21;;;;;;;1.62;1.48;;;;;;;20.45;57.42;99670.88;7766264;32;37055;-76
2022/06/07 00:25:38;;;;;;;1.58;1.20;;;;;;;20.18;58.18;99686.94;7765942;32;39182;-77
2022/06/07 00:29:54;;;;;;;1.98;1.30;;;;;;;20.21;58.01;99677.12;7764532;32;39847;-77
2022/06/07 00:34:11;;;;;;;1.95;1.70;;;;;;;19.96;58.83;99681.75;7766374;32;36092;-76
2022/06/07 00:38:27;;;;;;;3.15;1.60;;;;;;;20.19;58.14;99674.69;7764873;32;37778;-76
2022/06/07 00:42:43;;;;;;;1.92;1.40;;;;;;;19.88;59.29;99675.91;7765943;32;40043;-76
2022/06/07 00:47:11;;;;;;;2.65;1.42;;;;;;;20.07;58.56;99677.41;7765552;32;39960;-77
2022/06/07 00:51:27;;;;;;;2.00;1.60;;;;;;;19.75;59.63;99679.78;7765659;32;37931;-76
2022/06/07 00:55:43;;;;;;;5.50;2.15;;;;;;;19.64;59.81;99671.03;7765838;32;37708;-76
2022/06/07 00:59:59;;;;;;;2.83;1.70;;;;;;;19.77;59.47;99676.69;7765339;32;39246;-77
2022/06/07 01:04:15;;;;;;;3.40;1.70;;;;;;;19.83;59.39;99683.63;7765556;32;39870;-77
2022/06/07 01:13:06;;;;;;;3.65;1.83;;;;;;;19.84;58.89;99666.69;7765465;32;36649;-77
2022/06/07 01:17:22;;;;;;;3.60;1.80;;;;;;;19.52;59.94;99660.72;7765298;32;39122;-77
2022/06/07 01:21:41;;;;;;;2.12;1.40;;;;;;;19.77;59.27;99658.13;7765447;32;39672;-77
2022/06/07 01:26:00;;;;;;;3.50;1.60;;;;;;;19.82;59.27;99655.16;7764913;32;38011;-77
2022/06/07 01:30:17;;;;;;;1.65;1.50;;;;;;;19.56;60.26;99657.25;7765043;32;36927;-77
2022/06/07 01:34:33;;;;;;;4.28;1.45;;;;;;;19.47;60.29;99655.38;7764086;32;39169;-77
2022/06/07 01:43:25;;;;;;;3.00;1.60;;;;;;;19.32;60.27;99654.00;7748492;32;37812;-78
2022/06/07 01:47:41;;;;;;;2.58;1.60;;;;;;;19.42;59.64;99647.28;7764997;32;37600;-76
2022/06/07 01:51:58;;;;;;;2.25;1.55;;;;;;;19.32;60.11;99648.47;7765005;32;39900;-76
2022/06/07 01:56:17;;;;;;;2.08;1.50;;;;;;;19.24;60.73;99642.97;7764949;32;40757;-78
2022/06/07 02:00:33;;;;;;;1.90;1.40;;;;;;;19.49;59.89;99636.50;7764968;32;36799;-78
2022/06/07 02:04:49;;;;;;;2.85;1.80;;;;;;;19.41;60.24;99634.59;7764921;32;36916;-77
2022/06/07 02:09:06;;;;;;;1.50;1.40;;;;;;;19.42;60.18;99632.63;7764833;32;39929;-76
2022/06/07 02:13:23;;;;;;;5.20;1.40;;;;;;;19.46;59.93;99630.81;7764796;32;41334;-78
2022/06/07 02:17:39;;;;;;;3.75;1.42;;;;;;;19.25;60.50;99628.03;7764127;32;38053;-77
2022/06/07 02:21:55;;;;;;;1.30;1.20;;;;;;;19.44;59.78;99622.88;7763876;32;37648;-77
2022/06/07 02:26:32;;;;;;;1.87;1.52;;;;;;;19.30;60.77;99614.03;7764231;32;39177;-77
2022/06/07 02:30:48;;;;;;;1.55;1.45;;;;;;;19.36;60.55;99614.63;7763097;32;39707;-77
2022/06/07 02:35:05;;;;;;;3.50;1.62;;;;;;;19.45;59.98;99607.88;7764570;32;37635;-78
2022/06/07 02:39:22;;;;;;;2.28;1.80;;;;;;;19.34;60.42;99601.16;7764693;32;36274;-77
2022/06/07 02:43:38;;;;;;;2.20;1.60;;;;;;;19.24;60.97;99607.06;7762934;32;39916;-77
2022/06/07 02:47:54;;;;;;;2.62;1.52;;;;;;;18.99;61.86;99611.56;7763799;32;40881;-77
2022/06/07 02:52:10;;;;;;;1.55;1.40;;;;;;;19.08;61.17;99607.63;7763465;32;37753;-77
2022/06/07 02:56:26;;;;;;;3.03;1.67;;;;;;;19.10;61.00;99619.16;7763791;32;37489;-76
2022/06/07 03:00:42;;;;;;;2.55;1.80;;;;;;;18.98;61.87;99613.53;7763708;32;38976;-77
2022/06/07 03:04:58;;;;;;;3.70;2.00;;;;;;;19.12;61.66;99616.88;7762321;32;39692;-76
2022/06/07 03:09:14;;;;;;;2.25;1.80;;;;;;;19.24;61.81;99618.91;7763407;32;37655;-76
2022/06/07 03:13:30;;;;;;;3.12;1.70;;;;;;;19.11;62.18;99611.69;7763315;32;36828;-77
2022/06/07 03:17:46;;;;;;;2.30;2.10;;;;;;;18.94;62.10;99609.81;7762852;32;39203;-76
2022/06/07 03:22:03;;;;;;;3.25;2.33;;;;;;;18.95;61.90;99606.75;7762879;32;40730;-77
2022/06/07 03:26:19;;;;;;;2.53;1.62;;;;;;;19.03;61.54;99613.34;7762967;32;37810;-77
2022/06/07 03:30:35;;;;;;;2.45;1.70;;;;;;;19.37;60.28;99610.72;7762330;32;36985;-74
2022/06/07 03:34:52;;;;;;;2.97;1.67;;;;;;;19.13;61.46;99610.22;7766194;32;39960;-75
2022/06/07 03:39:09;;;;;;;2.10;1.70;;;;;;;19.13;61.76;99614.94;7766679;32;40677;-76
2022/06/07 03:43:25;;;;;;;1.75;1.52;;;;;;;19.08;61.47;99610.41;7766548;32;38738;-76
2022/06/07 03:47:41;;;;;;;1.85;1.50;;;;;;;19.22;61.10;99609.34;7766398;32;38638;-76
2022/06/07 03:51:58;;;;;;;2.05;1.70;;;;;;;19.18;61.16;99608.38;7766480;32;39988;-76
2022/06/07 03:56:15;;;;;;;2.08;1.65;;;;;;;19.07;61.61;99605.19;7766450;32;40636;-76
2022/06/07 04:00:32;;;;;;;2.72;1.73;;;;;;;19.15;61.38;99604.34;7766336;32;37880;-77
2022/06/07 04:04:48;;;;;;;3.35;2.20;;;;;;;19.23;61.18;99602.66;7766402;32;36686;-78
2022/06/07 04:09:04;;;;;;;3.70;1.65;;;;;;;19.28;61.08;99602.47;7766179;32;39234;-78
2022/06/07 04:13:23;;;;;;;1.62;1.40;;;;;;;19.25;61.25;99589.34;7766304;32;40676;-76
2022/06/07 04:17:39;;;;;;;5.12;1.70;;;;;;;19.26;61.66;99586.22;7766018;32;38104;-75
2022/06/07 04:21:55;;;;;;;1.70;1.50;;;;;;;19.44;61.41;99592.47;7766190;32;36992;-75
2022/06/07 04:26:15;;;;;;;3.08;1.75;;;;;;;19.51;61.52;99578.91;7766078;32;39279;-76
2022/06/07 04:30:31;;;;;;;6.25;2.05;;;;;;;19.63;61.59;99580.13;7765935;32;40044;-78
2022/06/07 04:34:47;;;;;;;4.22;1.73;;;;;;;19.74;61.52;99577.75;7765689;32;36732;-78
2022/06/07 04:39:05;;;;;;;4.30;1.58;;;;;;;19.71;61.87;99573.69;7766015;32;36945;-77
2022/06/07 04:43:21;;;;;;;4.75;1.80;;;;;;;19.89;61.11;99566.91;7765011;32;39415;-77
2022/06/07 04:47:37;;;;;;;3.28;1.62;;;;;;;19.97;60.90;99567.16;7765904;32;40083;-76
2022/06/07 04:51:53;;;;;;;3.03;1.90;;;;;;;20.17;60.33;99576.56;7765615;32;37868;-76
2022/06/07 04:56:12;;;;;;;3.37;1.60;;;;;;;20.35;60.08;99568.88;7765789;32;37655;-77
2022/06/07 05:00:29;;;;;;;3.47;2.17;;;;;;;20.43;59.81;99567.97;7765824;32;39809;-77
2022/06/07 05:04:45;;;;;;;3.05;1.73;;;;;;;20.65;59.17;99568.75;7765582;32;39993;-75
2022/06/07 05:09:05;;;;;;;3.33;1.92;;;;;;;20.74;59.01;99566.66;7765533;32;37813;-78
2022/06/07 05:13:22;;;;;;;2.58;1.83;;;;;;;20.79;59.28;99561.69;7765334;32;36951;-78
2022/06/07 05:17:38;;;;;;;4.65;1.80;;;;;;;20.67;59.99;99569.19;7765466;32;39790;-77
2022/06/07 05:21:55;;;;;;;2.83;1.85;;;;;;;20.64;60.67;99567.91;7765427;32;39874;-78
2022/06/07 05:26:34;;;;;;;2.53;1.80;;;;;;;20.92;59.85;99572.75;7765344;32;38039;-76
2022/06/07 05:30:50;;;;;;;3.67;1.60;;;;;;;21.00;60.01;99572.66;7764158;32;37460;-77
2022/06/07 05:35:08;;;;;;;5.95;2.00;;;;;;;21.09;60.32;99578.06;7765361;32;39754;-77
2022/06/07 05:39:26;;;;;;;2.67;1.70;;;;;;;21.12;60.88;99565.50;7765343;32;39831;-77
2022/06/07 05:43:43;;;;;;;3.53;1.90;;;;;;;21.55;59.81;99572.38;7764987;32;36769;-77
2022/06/07 05:47:59;;;;;;;2.47;1.62;;;;;;;21.78;59.02;99582.94;7765112;32;37110;-76
2022/06/07 05:52:15;;;;;;;3.08;1.70;;;;;;;22.23;58.03;99579.03;7764733;32;39363;-77
2022/06/07 05:56:32;;;;;;;2.67;2.03;;;;;;;22.16;57.82;99578.84;7763817;32;40023;-78
2022/06/07 06:00:48;;;;;;;5.35;1.90;;;;;;;22.55;55.75;99579.09;7764871;32;39077;-77
2022/06/07 06:05:05;;;;;;;3.17;1.60;;;;;;;22.76;54.31;99582.41;7764925;32;36809;-78
2022/06/07 06:13:55;;;;;;;2.40;1.48;;;;;;;22.74;51.48;99570.84;7763786;32;40213;-81
2022/06/07 06:18:11;;;;;;;3.10;1.70;;;;;;;23.23;53.32;99564.91;7763546;32;38240;-77
2022/06/07 06:22:27;;;;;;;1.90;1.60;;;;;;;23.63;51.87;99561.00;7764261;32;37601;-74
2022/06/07 06:26:44;;;;;;;6.03;1.50;;;;;;;23.89;50.92;99567.09;7764462;32;39873;-74
2022/06/07 06:31:05;;;;;;;2.62;1.67;;;;;;;24.23;50.49;99557.00;7764123;32;39666;-74
2022/06/07 06:35:21;;;;;;;4.87;1.90;;;;;;;23.96;51.75;99562.47;7762582;32;38750;-75
2022/06/07 06:39:37;;;;;;;1.85;1.60;;;;;;;24.06;52.34;99549.13;7763887;32;37759;-76
2022/06/07 06:43:54;;;;;;;5.62;1.60;;;;;;;24.27;51.45;99549.53;7763806;32;40069;-74
2022/06/07 06:48:12;;;;;;;2.90;1.60;;;;;;;24.27;50.38;99554.31;7761546;32;40833;-76
2022/06/07 06:52:28;;;;;;;1.75;1.58;;;;;;;24.06;50.86;99549.13;7701316;32;38479;-75
2022/06/07 06:56:46;;;;;;;3.30;1.80;;;;;;;24.10;51.12;99545.25;7656694;32;37511;-74
2022/06/07 07:01:14;;;;;;;7.87;1.77;;;;;;;24.21;50.81;99545.44;7702760;32;40323;-75
2022/06/07 07:05:35;;;;;;;2.42;1.62;;;;;;;24.34;50.27;99543.28;7689858;32;40621;-75
2022/06/07 07:09:51;;;;;;;3.53;1.70;;;;;;;24.09;50.89;99551.19;7679915;32;37849;-75
2022/06/07 07:14:08;;;;;;;2.78;1.37;;;;;;;24.54;50.15;99536.50;7685315;32;36973;-73
2022/06/07 07:18:25;;;;;;;2.40;1.62;;;;;;;24.82;49.07;99534.53;7686217;32;39002;-74
2022/06/07 07:22:41;;;;;;;2.80;1.37;;;;;;;24.85;48.18;99522.63;7684780;32;40659;-75
2022/06/07 07:26:58;;;;;;;3.33;1.70;;;;;;;24.69;48.10;99531.97;7685984;32;38018;-73
2022/06/07 07:31:16;;;;;;;2.15;1.50;;;;;;;25.33;45.68;99524.94;7681456;32;36446;-73
2022/06/07 07:35:32;;;;;;;1.45;1.27;;;;;;;25.39;45.48;99515.06;7659007;32;39179;-74
2022/06/07 07:39:48;;;;;;;5.47;1.50;;;;;;;25.73;43.62;99510.28;7678372;32;41122;-78
2022/06/07 07:44:06;;;;;;;3.08;1.90;;;;;;;25.65;45.55;99514.19;7675934;32;37739;-72
2022/06/07 07:48:23;;;;;;;2.20;1.40;;;;;;;25.83;44.95;99509.59;7686106;32;36665;-77
2022/06/07 07:52:39;;;;;;;2.15;1.50;;;;;;;26.63;42.96;99510.41;7688896;32;39983;-77
2022/06/07 07:56:55;;;;;;;2.50;1.30;;;;;;;26.80;41.77;99512.53;7711291;32;39993;-73
2022/06/07 08:01:14;;;;;;;2.85;1.40;;;;;;;26.75;42.32;99501.72;7709845;32;38218;-76
2022/06/07 08:05:33;;;;;;;3.60;1.80;;;;;;;27.45;41.20;99505.34;7710288;32;38219;-75
2022/06/07 08:09:49;;;;;;;2.37;1.58;;;;;;;27.80;41.65;99503.06;7711662;32;39676;-75
2022/06/07 08:14:08;;;;;;;2.37;1.90;;;;;;;27.71;39.68;99501.44;7706704;32;40923;-75
2022/06/07 08:18:26;;;;;;;2.67;1.77;;;;;;;28.06;40.41;99504.75;7709384;32;38575;-77
2022/06/07 08:22:42;;;;;;;3.37;1.50;;;;;;;27.79;41.58;99507.09;7687120;32;37788;-76
2022/06/07 08:26:58;;;;;;;3.10;1.50;;;;;;;27.96;41.60;99502.72;7693477;32;39047;-74
2022/06/07 08:31:25;;;;;;;4.25;1.80;;;;;;;28.29;39.42;99496.78;7704612;32;39708;-75
2022/06/07 08:40:40;;;;;;;3.30;1.48;;;;;;;28.18;39.82;99490.37;7688738;32;36895;-78
2022/06/07 08:45:14;;;;;;;4.05;2.08;;;;;;;28.69;36.87;99485.59;7710503;32;39218;-77
2022/06/07 08:49:30;;;;;;;4.68;1.70;;;;;;;28.97;37.96;99478.31;7710175;32;39884;-76
2022/06/07 08:53:54;;;;;;;2.30;1.58;;;;;;;28.64;37.72;99467.16;7709846;32;37868;-75
2022/06/07 08:58:16;;;;;;;4.07;1.42;;;;;;;29.36;38.32;99469.00;7709134;32;37643;-76
2022/06/07 09:02:52;;;;;;;1.67;1.50;;;;;;;29.70;36.14;99463.62;7711858;32;39244;-75
2022/06/07 09:07:17;;;;;;;2.20;1.70;;;;;;;29.53;35.78;99459.72;7709769;32;39864;-75
2022/06/07 09:12:14;;;;;;;2.35;1.10;;;;;;;29.87;35.59;99456.34;7711520;32;38721;-78
2022/06/07 09:16:43;;;;;;;4.68;1.30;;;;;;;29.80;36.84;99450.75;7710508;32;36500;-75
2022/06/07 09:21:06;;;;;;;4.43;1.27;;;;;;;29.92;33.79;99447.44;7710299;32;39288;-76
2022/06/07 09:25:29;;;;;;;1.87;1.20;;;;;;;30.09;34.30;99445.72;7711282;32;39702;-75
2022/06/07 09:29:57;;;;;;;3.03;1.23;;;;;;;30.38;34.24;99437.09;7709395;32;38106;-75
2022/06/07 09:34:28;;;;;;;1.90;1.12;;;;;;;30.71;31.44;99435.56;7693144;32;37169;-74
2022/06/07 09:38:52;;;;;;;4.05;1.10;;;;;;;30.43;32.09;99430.22;7705084;32;39823;-74
2022/06/07 09:43:18;;;;;;;1.12;0.90;;;;;;;30.52;31.32;99422.88;7709966;32;40726;-73
2022/06/07 09:47:34;;;;;;;2.50;1.08;;;;;;;29.93;30.74;99425.78;7707928;32;38647;-73
2022/06/07 09:51:50;;;;;;;5.28;0.95;;;;;;;30.13;32.49;99421.22;7709335;32;36867;-73
2022/06/07 09:56:34;;;;;;;27.05;17.98;;;;;;;30.25;30.76;99411.47;7710273;32;39122;-73
2022/06/07 10:00:59;;;;;;;4.95;1.50;;;;;;;30.30;30.13;99413.03;7707900;32;39783;-79
2022/06/07 10:05:15;;;;;;;2.45;1.85;;;;;;;30.65;30.67;99408.28;7707945;32;38747;-78
2022/06/07 10:09:54;;;;;;;9.48;1.80;;;;;;;31.29;31.22;99409.59;7709892;32;37892;-79
2022/06/07 10:14:37;;;;;;;0.85;0.70;;;;;;;31.32;28.64;99400.31;7710741;32;38926;-79
2022/06/07 10:19:04;;;;;;;3.08;0.90;;;;;;;30.61;28.70;99394.28;7710837;32;40237;-79
2022/06/07 10:23:44;;;;;;;1.00;0.70;;;;;;;30.50;29.61;99393.59;7710893;32;37770;-79
2022/06/07 10:28:26;;;;;;;0.70;0.70;;;;;;;30.88;28.73;99382.34;7710683;32;37194;-79
2022/06/07 10:33:00;;;;;;;3.42;1.20;;;;;;;30.73;28.71;99395.75;7709146;32;38930;-79
2022/06/07 10:37:22;;;;;;;0.98;0.80;;;;;;;31.53;27.48;99387.16;7707903;32;40795;-79
2022/06/07 10:41:43;;;;;;;1.30;0.80;;;;;;;31.54;28.05;99378.28;7709821;32;37780;-78
2022/06/07 10:46:00;;;;;;;1.37;0.73;;;;;;;31.58;27.43;99369.78;7710413;32;36905;-79
2022/06/07 10:50:23;;;;;;;2.08;1.70;;;;;;;30.67;28.90;99360.87;7710441;32;39403;-79
2022/06/07 10:55:09;;;;;;;0.75;0.75;;;;;;;30.94;28.55;99357.34;7708986;32;39867;-79
2022/06/07 10:59:27;;;;;;;2.47;1.33;;;;;;;31.78;27.74;99348.13;7709984;32;38616;-78
2022/06/07 11:03:51;;;;;;;1.58;0.90;;;;;;;31.90;27.07;99343.91;7708819;32;36934;-78
2022/06/07 11:13:27;;;;;;;0.70;0.70;;;;;;;31.74;25.86;99324.84;7709602;32;39434;-79
2022/06/07 11:17:49;;;;;;;3.33;1.00;;;;;;;31.23;27.50;99324.00;7708699;32;38597;-79
2022/06/07 11:22:13;;;;;;;5.55;1.33;;;;;;;30.68;30.35;99323.06;7709541;32;37776;-79
2022/06/07 11:26:37;;;;;;;1.48;1.05;;;;;;;30.86;28.83;99317.25;7709460;32;39350;-79
2022/06/07 11:30:58;;;;;;;3.85;1.23;;;;;;;30.66;29.30;99314.25;7709069;32;40014;-79
2022/06/07 11:36:03;;;;;;;1.17;1.00;;;;;;;30.74;30.43;99306.56;7708140;32;37817;-79
2022/06/07 11:40:30;;;;;;;1.27;1.00;;;;;;;30.63;29.55;99310.28;7708136;32;37550;-78
2022/06/07 11:45:22;;;;;;;2.53;1.20;;;;;;;30.82;30.77;99306.03;7708888;32;40317;-79
2022/06/07 11:49:59;;;;;;;1.33;0.90;;;;;;;30.54;30.07;99307.16;7708844;32;39956;-81
2022/06/07 11:54:16;;;;;;;3.83;0.77;;;;;;;30.21;31.08;99294.66;7707914;32;38557;-80
2022/06/07 11:58:51;;;;;;;1.52;0.93;;;;;;;30.25;31.35;99290.59;7712011;32;37567;-80
2022/06/07 12:03:10;;;;;;;2.12;1.00;;;;;;;30.45;32.37;99287.97;7711043;32;39269;-80
2022/06/07 12:07:32;;;;;;;0.85;0.70;;;;;;;30.69;32.49;99285.31;7723117;32;40801;-81
2022/06/07 12:11:49;;;;;;;12.70;2.80;;;;;;;30.70;30.89;99270.00;7711535;32;38144;-81
2022/06/07 12:16:21;;;;;;;24.70;8.20;;;;;;;30.85;34.37;99265.00;7711578;32;36996;-81
2022/06/07 12:20:40;;;;;;;19.60;2.35;;;;;;;30.81;31.87;99278.31;7708969;32;39221;-81
2022/06/07 12:25:19;;;;;;;1.67;1.25;;;;;;;30.96;31.75;99271.31;7712358;32;39961;-81
2022/06/07 12:29:35;;;;;;;3.72;1.12;;;;;;;32.37;29.78;99258.50;7711842;32;37860;-78
2022/06/07 12:33:57;;;;;;;1.90;0.93;;;;;;;33.41;27.42;99256.28;7697918;32;37299;-84
2022/06/07 12:38:16;;;;;;;3.37;1.10;;;;;;;34.11;23.97;99262.56;7709775;32;39145;-85
2022/06/07 12:42:32;;;;;;;3.60;1.35;;;;;;;34.25;24.34;99255.75;7710422;32;39995;-86
2022/06/07 12:46:48;;;;;;;2.67;1.08;;;;;;;34.20;22.39;99250.62;7711701;32;37750;-82
2022/06/07 12:51:34;;;;;;;1.75;1.20;;;;;;;33.47;24.60;99259.34;7711856;32;37564;-85
2022/06/07 12:56:12;;;;;;;1.80;1.17;;;;;;;32.50;25.28;99250.19;7709626;32;40026;-83
2022/06/07 13:00:43;;;;;;;3.42;1.30;;;;;;;31.92;26.24;99245.63;7710653;32;39822;-82
2022/06/07 13:05:04;;;;;;;3.67;1.10;;;;;;;32.45;27.25;99243.03;7709843;32;38616;-85
2022/06/07 13:09:21;;;;;;;1.63;1.10;;;;;;;32.23;26.98;99233.41;7711695;32;36678;-83
2022/06/07 13:13:39;;;;;;;1.65;0.80;;;;;;;32.06;25.43;99233.31;7711139;32;40170;-82
2022/06/07 13:18:04;;;;;;;6.65;1.33;;;;;;;32.12;25.74;99233.63;7711705;32;40776;-85
2022/06/07 13:22:22;;;;;;;8.88;1.67;;;;;;;32.63;26.40;99222.94;7711236;32;38745;-83
2022/06/07 13:26:45;;;;;;;3.65;1.30;;;;;;;32.24;25.73;99221.72;7711382;32;36862;-81
2022/06/07 13:31:02;;;;;;;3.33;1.20;;;;;;;31.74;26.33;99223.44;7711049;32;40034;-82
2022/06/07 13:35:26;;;;;;;2.72;1.37;;;;;;;31.95;27.40;99215.81;7710935;32;40709;-84
2022/06/07 13:39:58;;;;;;;2.45;1.00;;;;;;;32.27;25.78;99215.22;7710023;32;38693;-82
2022/06/07 13:44:27;;;;;;;3.00;1.17;;;;;;;31.97;25.40;99216.16;7710901;32;36999;-83
2022/06/07 13:53:30;;;;;;;6.55;1.20;;;;;;;31.82;25.86;99210.00;7709994;32;39955;-82
2022/06/07 13:57:46;;;;;;;1.60;0.90;;;;;;;31.91;26.75;99198.16;7710800;32;37898;-81
2022/06/07 14:02:03;;;;;;;5.70;1.33;;;;;;;31.94;27.04;99192.47;7709525;32;37505;-83
2022/06/07 14:06:27;;;;;;;2.10;1.25;;;;;;;31.75;27.00;99198.84;7709917;32;40097;-83
2022/06/07 14:10:44;;;;;;;1.75;1.12;;;;;;;31.46;26.84;99190.91;7710626;32;38906;-82
2022/06/07 14:15:00;;;;;;;0.90;0.90;;;;;;;31.73;26.54;99188.00;7709839;32;37652;-84
2022/06/07 14:19:20;;;;;;;1.30;1.00;;;;;;;31.87;26.44;99181.31;7709759;32;37521;-84
2022/06/07 14:23:36;;;;;;;2.03;1.10;;;;;;;32.69;25.04;99183.72;7709217;32;39944;-81
2022/06/07 14:27:52;;;;;;;2.33;1.08;;;;;;;33.03;25.09;99165.56;7710232;32;40127;-84
2022/06/07 14:32:26;;;;;;;5.40;1.30;;;;;;;33.13;23.79;99170.16;7710129;32;38488;-82
2022/06/07 14:36:42;;;;;;;1.85;1.10;;;;;;;33.71;23.81;99161.06;7708944;32;36728;-84
2022/06/07 14:40:58;;;;;;;5.65;1.33;;;;;;;33.83;22.71;99151.06;7710680;32;39215;-85
2022/06/07 14:45:25;;;;;;;1.10;1.00;;;;;;;33.34;23.43;99148.31;7708644;32;39914;-83
2022/06/07 14:49:41;;;;;;;2.15;1.08;;;;;;;33.63;23.58;99145.50;7693920;32;38739;-83
2022/06/07 14:54:01;;;;;;;1.37;1.20;;;;;;;33.43;23.93;99148.50;7682899;32;37683;-82
2022/06/07 14:58:17;;;;;;;1.15;1.02;;;;;;;32.68;25.19;99148.25;7682718;32;39376;-83
2022/06/07 15:02:36;;;;;;;2.90;1.20;;;;;;;32.92;24.11;99140.44;7682997;32;40014;-82
2022/06/07 15:06:53;;;;;;;1.80;1.02;;;;;;;32.16;25.04;99138.50;7682417;32;38675;-82
2022/06/07 15:11:23;;;;;;;1.27;1.17;;;;;;;32.53;24.17;99126.00;7682779;32;37655;-82
2022/06/07 15:15:39;;;;;;;1.75;1.27;;;;;;;32.56;23.71;99119.50;7681579;32;39353;-81
2022/06/07 15:19:55;;;;;;;3.08;1.20;;;;;;;32.15;24.00;99123.63;7682448;32;40058;-80
2022/06/07 15:24:16;;;;;;;5.53;1.50;;;;;;;31.85;24.46;99126.63;7681059;32;37677;-82
2022/06/07 15:28:32;;;;;;;1.20;1.10;;;;;;;31.70;25.38;99115.66;7683464;32;36845;-83
2022/06/07 15:32:50;;;;;;;3.03;1.10;;;;;;;31.52;26.64;99109.56;7685904;32;39694;-81
2022/06/07 15:37:06;;;;;;;3.37;1.45;;;;;;;31.49;28.24;99116.81;7684490;32;39778;-82
2022/06/07 15:45:57;;;;;;;3.95;2.03;;;;;;;31.34;26.01;99121.09;7685801;32;36898;-82
2022/06/07 15:50:18;;;;;;;6.18;2.75;;;;;;;30.98;27.62;99119.72;7685887;32;39221;-81
2022/06/07 15:54:34;;;;;;;2.53;1.62;;;;;;;30.70;28.72;99120.91;7685780;32;40524;-81
2022/06/07 15:59:03;;;;;;;2.28;1.70;;;;;;;30.61;29.06;99117.84;7685874;32;38585;-83
2022/06/07 16:03:19;;;;;;;3.80;1.95;;;;;;;30.62;29.01;99117.41;7711876;32;36635;-81
2022/06/07 16:07:35;;;;;;;4.93;2.10;;;;;;;30.13;29.50;99126.09;7711726;32;39298;-82
2022/06/07 16:11:52;;;;;;;5.22;2.40;;;;;;;30.01;30.54;99129.47;7712272;32;39411;-81
2022/06/07 16:16:08;;;;;;;5.68;2.42;;;;;;;30.30;30.04;99121.47;7712246;32;37745;-82
2022/06/07 16:20:25;;;;;;;5.30;2.50;;;;;;;30.09;30.56;99121.75;7711785;32;36799;-82
2022/06/07 16:24:41;;;;;;;3.28;2.30;;;;;;;30.06;30.33;99116.94;7712339;32;39951;-81
2022/06/07 16:33:36;;;;;;;4.37;2.50;;;;;;;29.77;31.36;99126.53;7711859;32;37848;-81
2022/06/07 16:37:52;;;;;;;5.82;2.75;;;;;;;29.68;31.88;99133.81;7711965;32;37092;-81
2022/06/07 16:42:08;;;;;;;3.85;2.22;;;;;;;29.86;31.43;99134.47;7710568;32;39991;-82
2022/06/07 16:46:24;;;;;;;7.00;2.65;;;;;;;29.85;31.51;99132.84;7712072;32;40027;-81
2022/06/07 16:50:40;;;;;;;8.70;2.62;;;;;;;29.72;31.70;99140.22;7711174;32;38727;-82
2022/06/07 16:54:56;;;;;;;2.87;2.28;;;;;;;29.55;31.85;99142.78;7712001;32;36930;-81
2022/06/07 16:59:14;;;;;;;7.20;2.50;;;;;;;29.45;31.91;99145.69;7711233;32;39902;-81
2022/06/07 17:03:32;;;;;;;6.28;2.50;;;;;;;29.23;32.60;99142.28;7711743;32;39652;-81
2022/06/07 17:07:49;;;;;;;5.43;2.72;;;;;;;29.15;33.00;99138.72;7711618;32;37777;-82
2022/06/07 17:12:05;;;;;;;3.78;2.53;;;;;;;29.10;34.19;99141.97;7710991;32;36948;-82
2022/06/07 17:16:23;;;;;;;4.32;2.90;;;;;;;29.42;32.98;99140.91;7711742;32;40062;-82
2022/06/07 17:20:40;;;;;;;3.40;2.70;;;;;;;29.15;33.30;99147.94;7710821;32;40063;-81
2022/06/07 17:24:56;;;;;;;7.15;2.75;;;;;;;29.21;32.53;99134.28;7711545;32;37892;-81
2022/06/07 17:29:12;;;;;;;5.00;3.03;;;;;;;28.93;33.03;99140.91;7711716;32;36952;-81
2022/06/07 17:33:28;;;;;;;4.72;2.50;;;;;;;29.08;32.34;99138.75;7710694;32;39774;-82
2022/06/07 17:37:44;;;;;;;4.90;2.83;;;;;;;29.16;31.85;99135.50;7711132;32;39674;-82
2022/06/07 17:42:02;;;;;;;6.87;2.97;;;;;;;29.17;32.39;99130.72;7711133;32;38601;-80
2022/06/07 17:46:18;;;;;;;10.13;3.28;;;;;;;29.26;32.61;99135.84;7710109;32;38353;-80
2022/06/07 17:50:38;;;;;;;5.53;2.78;;;;;;;29.17;33.74;99137.13;7711390;32;39502;-80
2022/06/07 17:54:54;;;;;;;6.20;3.03;;;;;;;29.17;34.11;99128.69;7711413;32;40788;-81
2022/06/07 17:59:10;;;;;;;7.62;2.83;;;;;;;29.14;33.19;99137.13;7711206;32;37633;-82
2022/06/07 18:03:29;;;;;;;4.28;3.00;;;;;;;29.13;32.80;99122.31;7710988;32;36779;-75
2022/06/07 18:07:46;;;;;;;7.97;3.28;;;;;;;29.10;33.90;99120.31;7710206;32;39423;-76
2022/06/07 18:12:03;;;;;;;4.82;2.50;;;;;;;28.99;35.22;99125.22;7711039;32;39708;-75
2022/06/07 18:16:19;;;;;;;5.37;2.83;;;;;;;28.88;35.31;99111.28;7709639;32;38717;-76
2022/06/07 18:20:36;;;;;;;8.43;3.30;;;;;;;28.89;35.07;99123.28;7710884;32;37694;-76
2022/06/07 18:24:57;;;;;;;4.43;2.95;;;;;;;28.75;35.23;99116.59;7710660;32;39023;-75
2022/06/07 18:29:14;;;;;;;3.87;2.67;;;;;;;28.61;34.87;99108.25;7704538;32;151278;-76
2022/06/07 18:33:30;;;;;;;5.43;2.67;;;;;;;28.61;34.06;99120.28;7710495;32;38649;-76
2022/06/07 18:37:46;;;;;;;4.80;2.95;;;;;;;28.34;35.50;99122.00;7710423;32;36929;-76
2022/06/07 18:42:02;;;;;;;6.93;2.80;;;;;;;28.30;36.00;99116.41;7710494;32;39200;-75
2022/06/07 18:46:19;;;;;;;4.70;2.90;;;;;;;28.18;36.74;99122.50;7710368;32;40013;-75
2022/06/07 18:50:37;;;;;;;4.20;2.95;;;;;;;28.20;36.98;99123.69;7710297;32;37920;-76
2022/06/07 18:54:53;;;;;;;4.30;2.97;;;;;;;27.96;37.13;99122.59;7710054;32;36276;-81
2022/06/07 18:59:09;;;;;;;5.68;3.12;;;;;;;27.94;37.04;99136.22;7709444;32;39299;-78
2022/06/07 19:03:26;;;;;;;5.20;2.85;;;;;;;26.83;41.78;99164.25;7711044;32;41641;-77
2022/06/07 19:07:42;;;;;;;7.47;2.53;;;;;;;26.65;42.59;99166.97;7712755;32;37895;-80
2022/06/07 19:12:03;;;;;;;4.95;2.37;;;;;;;26.68;42.56;99172.59;7713326;32;36768;-80
2022/06/07 19:16:20;;;;;;;5.32;2.37;;;;;;;26.39;43.28;99178.06;7713241;32;39347;-77
2022/06/07 19:20:37;;;;;;;8.35;2.50;;;;;;;26.17;44.27;99182.78;7712867;32;40686;-75
2022/06/07 19:24:53;;;;;;;4.47;2.78;;;;;;;26.14;44.70;99188.34;7706776;32;37914;-77
2022/06/07 19:29:10;;;;;;;10.55;2.90;;;;;;;26.06;45.29;99193.09;7712911;32;37702;-76
2022/06/07 19:33:27;;;;;;;4.00;2.72;;;;;;;25.53;47.71;99205.50;7711693;32;39368;-77
2022/06/07 19:37:43;;;;;;;6.70;2.47;;;;;;;25.40;48.71;99204.97;7711700;32;39961;-76
2022/06/07 19:42:02;;;;;;;9.27;3.40;;;;;;;24.73;50.81;99215.09;7711662;32;37886;-77
2022/06/07 19:46:18;;;;;;;3.87;3.00;;;;;;;24.53;51.19;99214.44;7710164;32;37169;-78
2022/06/07 19:50:39;;;;;;;4.78;2.90;;;;;;;24.10;52.97;99222.25;7711972;32;39178;-78
2022/06/07 19:54:57;;;;;;;6.25;3.55;;;;;;;24.30;52.43;99231.28;7710533;32;39476;-78
2022/06/07 19:59:13;;;;;;;7.60;3.30;;;;;;;24.24;52.93;99226.41;7710312;32;38838;-75
2022/06/07 20:03:29;;;;;;;8.90;3.47;;;;;;;24.21;53.29;99225.16;7710740;32;37125;-80
2022/06/07 20:07:47;;;;;;;6.25;3.90;;;;;;;24.08;53.86;99226.59;7711484;32;40072;-80
2022/06/07 20:12:06;;;;;;;7.05;3.97;;;;;;;23.73;54.81;99231.25;7709884;32;40952;-78
2022/06/07 20:16:23;;;;;;;6.28;3.62;;;;;;;23.90;54.27;99229.91;7721848;32;36837;-78
2022/06/07 20:20:41;;;;;;;7.12;3.87;;;;;;;24.00;54.09;99223.69;7709853;32;38622;-77
2022/06/07 20:24:58;;;;;;;4.85;3.55;;;;;;;23.42;55.58;99226.75;7710830;32;40025;-77
2022/06/07 20:29:14;;;;;;;5.82;3.60;;;;;;;23.84;54.49;99225.06;7722236;32;39916;-76
2022/06/07 20:33:30;;;;;;;7.07;3.60;;;;;;;23.83;54.33;99221.47;7711066;32;38676;-76
2022/06/07 20:37:48;;;;;;;6.72;3.17;;;;;;;23.70;54.91;99225.59;7708777;32;38294;-77
2022/06/07 20:42:04;;;;;;;4.57;3.28;;;;;;;23.91;54.43;99230.72;7703235;32;40400;-77
2022/06/07 20:46:23;;;;;;;6.37;3.90;;;;;;;23.99;53.93;99226.84;7688500;32;39586;-77
2022/06/07 20:50:46;;;;;;;5.57;3.67;;;;;;;23.55;55.25;99233.72;7710617;32;37961;-77
2022/06/07 20:55:04;;;;;;;8.70;4.15;;;;;;;23.59;54.91;99223.47;7711365;32;37940;-78
2022/06/07 20:59:20;;;;;;;5.28;3.35;;;;;;;23.87;53.71;99225.13;7710028;32;39264;-77
2022/06/07 21:03:36;;;;;;;5.57;3.30;;;;;;;23.55;54.49;99219.81;7711216;32;39920;-78